AirNav   ProFlight Series 2 Aviation Headset
 
 1619 users online  

3PS0 Penn Chester County Hospital Heliport
West Chester, Pennsylvania, USA

GOING TO WEST CHESTER?


FAA INFORMATION EFFECTIVE 13 AUGUST 2020

Location

FAA Identifier: 3PS0
Lat/Long: 39-58-20.5600N 075-36-06.3500W
39-58.342667N 075-36.105833W
39.9723778,-75.6017639
(estimated)
Elevation: 544 ft. / 166 m (estimated)
Variation: 11W (1985)
Time zone: UTC -4 (UTC -5 during Standard Time)
Zip code: 19380

Heliport Operations

Heliport use: Private use, MEDICAL USE.
Activation date: 02/1987
Control tower: no
ARTCC: NEW YORK CENTER
FSS: WILLIAMSPORT FLIGHT SERVICE STATION
Attendance: CONTINUOUS
Wind indicator: lighted
Segmented circle: no

Heliport Communications

WX AWOS-3T at OQN (1.4 nm NE): 121.4 ((610) 692-6190)
WX AWOS-3 at MQS (12 nm W): 126.25 (610-384-6132)
WX ASOS at PTW (16 nm N): 119.425 (610-495-0823)
WX ASOS at ILG (18 nm S): PHONE 302-328-1536
WX ASOS at PHL (18 nm E): PHONE 215-492-9617
WX AWOS-3 at LOM (18 nm NE): 118.925 (215-646-1068)

Nearby radio navigation aids

VOR radial/distance  VOR name  Freq  Var
MXEr053/4.6MODENA VORTAC113.2009W
PTWr196/15.1POTTSTOWN VORTAC116.5009W
DQOr011/17.7DUPONT VORTAC114.0010W
OODr336/24.4WOODSTOWN VORTAC112.8010W
LRPr115/32.9LANCASTER VOR/DME117.3009W
ARDr252/36.0YARDLEY VOR/DME108.2010W
ETXr183/36.7EAST TEXAS VOR/DME110.2009W
VCNr322/39.2CEDAR LAKE VOR/DME115.2010W

 
NDB name  Hdg/Dist  Freq  Var  ID
AMBLER250/17.227512WING .. -. --.
RAINBOW338/39.636311WRNB .-. -. -...

Heliport Services

Runway Information

Helipad H1

Dimensions: 55 x 55 ft. / 17 x 17 m
Surface: concrete/treated
Operational restrictions: 090 DEGREES INGRESS, 270 DEGREES EGRESS.
Latitude: 39-58.342667N
Longitude: 075-36.105833W
Elevation: 544.0 ft.
Traffic pattern: leftleft
Runway end identifier lights: yes

Heliport Ownership and Management from official FAA records

Ownership: Privately-owned
Owner: CHESTER COUNTY HOSPITAL
701 EAST MARSHALL STREET
WEST CHESTER, PA 19380
Phone (610) 431-5000
Manager: JOHN FELICETTI
701 EAST MARSHALL STREET
WEST CHESTER, PA 19380
Phone (610) 431-5558

Heliport Operational Statistics

Aircraft based on the field: 1
Helicopters: 1
    

Additional Remarks

FOR CD CTC PHILADELPHIA APCH AT 800-354-9884.

Instrument Procedures

There are no published instrument procedures at 3PS0.

Some nearby airports with instrument procedures:

KOQN - Brandywine Regional Airport (1 nm NE)
N57 - New Garden Airport (11 nm SW)
KMQS - Chester County G O Carlson Airport (12 nm W)
N10 - Perkiomen Valley Airport (16 nm NE)
KPTW - Heritage Field Airport (16 nm N)
7N7 - Spitfire Aerodrome (17 nm SE)
N47 - Pottstown Municipal Airport (18 nm N)
KILG - New Castle Airport (18 nm S)
KPHL - Philadelphia International Airport (18 nm E)
KLOM - Wings Field Airport (18 nm NE)
 
Loc | Ops | Rwys | IFR | FBO | Links
Com | Nav | Svcs | Stats | Notes
Area around 3PS0 (Penn Chester County Hospital Heliport)
 
Road maps at: MapQuest Bing Google
 
Aerial photo
No photo
 
Sectional chart

 
Airport distance calculator
Flying to Penn Chester County Hospital Heliport? Find the distance to fly.

From to 3PS0

Sunrise and sunset
Times for 13-Aug-2020
 Local
(UTC-4)
 Zulu
(UTC)
Morning civil twilight05:4509:45
Sunrise06:1410:14
Sunset20:0000:00
Evening civil twilight20:2900:29

Current date and time
Zulu (UTC)  13-Aug-2020 19:32:00
Local (UTC-4)  13-Aug-2020 15:32:00
 
METAR
KOQN 131915Z AUTO 00000KT 7SM DZ SCT014 BKN020 BKN025 25/23 A3009 RMK AO2 P0001
KMQS 
12nm W 
131915Z AUTO 00000KT FEW013 SCT018 BKN027 26/22 A3010 RMK AO2
KPTW 
16nm N 
131909Z AUTO 00000KT 8SM FEW019 BKN030 26/22 A3010 RMK AO2 T02560217
KPHL 
18nm E 
131918Z 09005KT 7SM VCTS -RA FEW055 BKN090 OVC120 26/24 A3007 RMK AO2 LTG DSNT SE CB DSNT N STNRY P0000 T02610244
KILG 
18nm S 
131851Z 00000KT 7SM -RA BKN100 OVC110 25/23 A3007 RMK AO2 LTG DSNT N SLP181 P0008 T02500228
KLOM 
18nm NE 
131915Z AUTO 08005KT 10SM SCT010 SCT028 SCT035 26/24 A3008 RMK AO2 T02550238
TAF
KPHL 
18nm E 
131729Z 1318/1424 10006KT P6SM -SHRA SCT025 OVC080 TEMPO 1318/1321 5SM SHRA BR OVC025 FM140000 12005KT P6SM SCT025 BKN050 FM140600 05004KT 5SM BR SCT010 TEMPO 1408/1411 2SM BR BKN010 FM141300 05008KT P6SM BKN025 FM141700 06008KT P6SM SCT025 BKN080
KILG 
18nm S 
131729Z 1318/1418 12006KT 6SM -SHRA SCT020 OVC050 TEMPO 1318/1321 4SM SHRA BR OVC020 FM140000 10005KT P6SM SCT025 BKN050 FM140600 04004KT 6SM BR SCT010 TEMPO 1408/1411 3SM BR BKN010 FM141300 05008KT P6SM OVC020 FM141700 06008KT P6SM SCT020 BKN080
NOTAMs
Click for the latest NOTAMs
NOTAMs are issued by the DoD/FAA and will open in a separate window not controlled by AirNav.

 

 
 

Would you like to see your business listed on this page?

 If your business provides an interesting product or service to pilots, flight crews, aircraft, or users of the Penn Chester County Hospital Heliport, you should consider listing it here.  To start the listing process, click on the button below
 
Add a business
 

Other Pages about Penn Chester County Hospital Heliport

Update a link
 
Copyright © AirNav, LLC. All rights reserved. Privacy Policy  Contact